sensor_id;sensor_type;location;lat;lon;timestamp;P1;durP1;ratioP1;P2;durP2;ratioP2
67074;SDS011;53990;50.334;18.640;2023-05-02T00:02:26;19.10;;;10.90;;
67074;SDS011;53990;50.334;18.640;2023-05-02T00:04:54;17.40;;;9.80;;
67074;SDS011;53990;50.334;18.640;2023-05-02T00:07:21;16.70;;;10.40;;
67074;SDS011;53990;50.334;18.640;2023-05-02T00:09:49;19.80;;;11.50;;
67074;SDS011;53990;50.334;18.640;2023-05-02T00:12:16;19.10;;;11.00;;
67074;SDS011;53990;50.334;18.640;2023-05-02T00:14:43;20.80;;;11.00;;
67074;SDS011;53990;50.334;18.640;2023-05-02T00:17:17;22.70;;;11.70;;
67074;SDS011;53990;50.334;18.640;2023-05-02T00:19:46;19.10;;;10.80;;
67074;SDS011;53990;50.334;18.640;2023-05-02T00:22:13;18.40;;;11.00;;
67074;SDS011;53990;50.334;18.640;2023-05-02T00:24:40;18.60;;;10.90;;
67074;SDS011;53990;50.334;18.640;2023-05-02T00:27:07;17.60;;;11.20;;
67074;SDS011;53990;50.334;18.640;2023-05-02T00:29:35;22.20;;;12.70;;
67074;SDS011;53990;50.334;18.640;2023-05-02T00:32:02;20.30;;;12.20;;
67074;SDS011;53990;50.334;18.640;2023-05-02T00:34:30;18.80;;;12.30;;
67074;SDS011;53990;50.334;18.640;2023-05-02T00:36:57;22.00;;;12.80;;
67074;SDS011;53990;50.334;18.640;2023-05-02T00:39:25;18.90;;;12.30;;
67074;SDS011;53990;50.334;18.640;2023-05-02T00:41:56;17.80;;;12.30;;
67074;SDS011;53990;50.334;18.640;2023-05-02T00:44:24;18.70;;;11.70;;
67074;SDS011;53990;50.334;18.640;2023-05-02T00:46:51;20.20;;;12.10;;
67074;SDS011;53990;50.334;18.640;2023-05-02T00:49:19;21.00;;;12.30;;
67074;SDS011;53990;50.334;18.640;2023-05-02T00:51:46;19.70;;;12.20;;
67074;SDS011;53990;50.334;18.640;2023-05-02T00:54:13;18.40;;;11.20;;
67074;SDS011;53990;50.334;18.640;2023-05-02T00:56:41;18.40;;;11.90;;
67074;SDS011;53990;50.334;18.640;2023-05-02T00:59:09;23.60;;;11.70;;
67074;SDS011;53990;50.334;18.640;2023-05-02T01:07:13;17.30;;;11.00;;
67074;SDS011;53990;50.334;18.640;2023-05-02T01:10:08;17.90;;;11.30;;
67074;SDS011;53990;50.334;18.640;2023-05-02T01:12:55;18.50;;;10.50;;
67074;SDS011;53990;50.334;18.640;2023-05-02T01:15:24;18.30;;;11.60;;
67074;SDS011;53990;50.334;18.640;2023-05-02T01:17:53;19.90;;;11.40;;
67074;SDS011;53990;50.334;18.640;2023-05-02T01:20:24;18.60;;;11.10;;
67074;SDS011;53990;50.334;18.640;2023-05-02T01:22:55;18.10;;;10.80;;
67074;SDS011;53990;50.334;18.640;2023-05-02T01:25:32;17.40;;;11.50;;
67074;SDS011;53990;50.334;18.640;2023-05-02T01:30:36;16.40;;;10.70;;
67074;SDS011;53990;50.334;18.640;2023-05-02T01:33:04;19.20;;;11.10;;
67074;SDS011;53990;50.334;18.640;2023-05-02T01:35:33;16.20;;;10.90;;
67074;SDS011;53990;50.334;18.640;2023-05-02T01:38:02;17.70;;;10.90;;
67074;SDS011;53990;50.334;18.640;2023-05-02T01:40:31;18.50;;;11.10;;
67074;SDS011;53990;50.334;18.640;2023-05-02T01:42:59;18.20;;;11.70;;
67074;SDS011;53990;50.334;18.640;2023-05-02T01:45:30;18.80;;;11.60;;
67074;SDS011;53990;50.334;18.640;2023-05-02T01:48:00;17.80;;;11.50;;
67074;SDS011;53990;50.334;18.640;2023-05-02T01:50:28;19.30;;;12.20;;
67074;SDS011;53990;50.334;18.640;2023-05-02T01:52:57;19.80;;;11.90;;
67074;SDS011;53990;50.334;18.640;2023-05-02T01:55:25;18.40;;;11.20;;
67074;SDS011;53990;50.334;18.640;2023-05-02T01:57:54;20.90;;;12.10;;
67074;SDS011;53990;50.334;18.640;2023-05-02T02:00:23;20.30;;;11.80;;
67074;SDS011;53990;50.334;18.640;2023-05-02T02:02:52;17.70;;;11.60;;
67074;SDS011;53990;50.334;18.640;2023-05-02T02:05:21;19.10;;;12.50;;
67074;SDS011;53990;50.334;18.640;2023-05-02T02:07:49;19.10;;;11.90;;
67074;SDS011;53990;50.334;18.640;2023-05-02T02:10:17;19.90;;;11.90;;
67074;SDS011;53990;50.334;18.640;2023-05-02T02:12:50;18.80;;;12.00;;
67074;SDS011;53990;50.334;18.640;2023-05-02T02:15:26;21.10;;;12.90;;
67074;SDS011;53990;50.334;18.640;2023-05-02T02:17:58;18.40;;;12.20;;
67074;SDS011;53990;50.334;18.640;2023-05-02T02:20:28;18.00;;;11.70;;
67074;SDS011;53990;50.334;18.640;2023-05-02T02:22:57;18.40;;;11.70;;
67074;SDS011;53990;50.334;18.640;2023-05-02T02:25:25;19.00;;;12.00;;
67074;SDS011;53990;50.334;18.640;2023-05-02T02:27:53;20.40;;;11.90;;
67074;SDS011;53990;50.334;18.640;2023-05-02T02:30:21;19.70;;;11.20;;
67074;SDS011;53990;50.334;18.640;2023-05-02T02:32:48;16.80;;;11.00;;
67074;SDS011;53990;50.334;18.640;2023-05-02T02:35:15;15.70;;;10.90;;
67074;SDS011;53990;50.334;18.640;2023-05-02T02:40:40;18.20;;;10.90;;
67074;SDS011;53990;50.334;18.640;2023-05-02T02:43:40;13.90;;;10.00;;
67074;SDS011;53990;50.334;18.640;2023-05-02T02:46:13;15.80;;;10.70;;
67074;SDS011;53990;50.334;18.640;2023-05-02T02:48:56;19.30;;;10.60;;
67074;SDS011;53990;50.334;18.640;2023-05-02T02:51:31;16.20;;;10.10;;
67074;SDS011;53990;50.334;18.640;2023-05-02T02:54:28;16.90;;;9.90;;
67074;SDS011;53990;50.334;18.640;2023-05-02T02:57:01;18.30;;;9.90;;
67074;SDS011;53990;50.334;18.640;2023-05-02T02:59:37;18.00;;;9.70;;
67074;SDS011;53990;50.334;18.640;2023-05-02T03:02:08;14.70;;;9.80;;
67074;SDS011;53990;50.334;18.640;2023-05-02T03:04:40;15.30;;;9.40;;
67074;SDS011;53990;50.334;18.640;2023-05-02T03:07:09;15.30;;;9.90;;
67074;SDS011;53990;50.334;18.640;2023-05-02T03:09:44;15.00;;;10.40;;
67074;SDS011;53990;50.334;18.640;2023-05-02T03:12:12;15.30;;;9.40;;
67074;SDS011;53990;50.334;18.640;2023-05-02T03:14:39;15.40;;;9.10;;
67074;SDS011;53990;50.334;18.640;2023-05-02T03:17:07;14.90;;;9.70;;
67074;SDS011;53990;50.334;18.640;2023-05-02T03:19:34;15.50;;;8.80;;
67074;SDS011;53990;50.334;18.640;2023-05-02T03:22:03;14.30;;;8.80;;
67074;SDS011;53990;50.334;18.640;2023-05-02T03:24:31;12.10;;;8.20;;
67074;SDS011;53990;50.334;18.640;2023-05-02T03:26:58;14.30;;;8.50;;
67074;SDS011;53990;50.334;18.640;2023-05-02T03:29:26;14.80;;;8.50;;
67074;SDS011;53990;50.334;18.640;2023-05-02T03:31:54;13.20;;;8.70;;
67074;SDS011;53990;50.334;18.640;2023-05-02T03:34:21;13.30;;;8.70;;
67074;SDS011;53990;50.334;18.640;2023-05-02T03:36:49;14.80;;;8.60;;
67074;SDS011;53990;50.334;18.640;2023-05-02T03:39:17;13.40;;;8.50;;
67074;SDS011;53990;50.334;18.640;2023-05-02T03:41:44;13.90;;;8.80;;
67074;SDS011;53990;50.334;18.640;2023-05-02T03:44:12;14.10;;;9.00;;
67074;SDS011;53990;50.334;18.640;2023-05-02T03:46:39;15.10;;;9.20;;
67074;SDS011;53990;50.334;18.640;2023-05-02T03:49:07;15.70;;;9.10;;
67074;SDS011;53990;50.334;18.640;2023-05-02T03:51:34;12.80;;;9.00;;
67074;SDS011;53990;50.334;18.640;2023-05-02T03:54:01;14.50;;;9.00;;
67074;SDS011;53990;50.334;18.640;2023-05-02T03:56:29;14.70;;;9.40;;
67074;SDS011;53990;50.334;18.640;2023-05-02T03:58:56;14.20;;;9.00;;
67074;SDS011;53990;50.334;18.640;2023-05-02T04:01:23;13.40;;;9.70;;
67074;SDS011;53990;50.334;18.640;2023-05-02T04:03:51;17.30;;;9.90;;
67074;SDS011;53990;50.334;18.640;2023-05-02T04:06:19;20.50;;;11.80;;
67074;SDS011;53990;50.334;18.640;2023-05-02T04:08:46;16.40;;;11.00;;
67074;SDS011;53990;50.334;18.640;2023-05-02T04:11:14;14.30;;;9.40;;
67074;SDS011;53990;50.334;18.640;2023-05-02T04:13:41;17.50;;;10.00;;
67074;SDS011;53990;50.334;18.640;2023-05-02T04:16:08;16.40;;;9.30;;
67074;SDS011;53990;50.334;18.640;2023-05-02T04:18:35;12.70;;;8.20;;
67074;SDS011;53990;50.334;18.640;2023-05-02T04:21:03;14.80;;;8.90;;
67074;SDS011;53990;50.334;18.640;2023-05-02T04:23:30;13.00;;;8.80;;
67074;SDS011;53990;50.334;18.640;2023-05-02T04:25:57;13.10;;;8.40;;
67074;SDS011;53990;50.334;18.640;2023-05-02T04:28:24;14.10;;;8.20;;
67074;SDS011;53990;50.334;18.640;2023-05-02T04:30:52;15.00;;;9.00;;
67074;SDS011;53990;50.334;18.640;2023-05-02T04:33:19;13.60;;;8.50;;
67074;SDS011;53990;50.334;18.640;2023-05-02T04:35:46;13.80;;;8.70;;
67074;SDS011;53990;50.334;18.640;2023-05-02T04:38:14;12.90;;;8.50;;
67074;SDS011;53990;50.334;18.640;2023-05-02T04:40:41;15.80;;;8.80;;
67074;SDS011;53990;50.334;18.640;2023-05-02T04:43:09;15.10;;;8.30;;
67074;SDS011;53990;50.334;18.640;2023-05-02T04:45:36;15.90;;;8.80;;
67074;SDS011;53990;50.334;18.640;2023-05-02T04:48:03;13.10;;;8.20;;
67074;SDS011;53990;50.334;18.640;2023-05-02T04:50:31;19.50;;;8.30;;
67074;SDS011;53990;50.334;18.640;2023-05-02T04:52:58;13.70;;;8.50;;
67074;SDS011;53990;50.334;18.640;2023-05-02T04:55:25;12.70;;;8.50;;
67074;SDS011;53990;50.334;18.640;2023-05-02T04:57:52;12.10;;;8.10;;
67074;SDS011;53990;50.334;18.640;2023-05-02T05:00:20;13.90;;;8.40;;
67074;SDS011;53990;50.334;18.640;2023-05-02T05:02:47;12.70;;;7.30;;
67074;SDS011;53990;50.334;18.640;2023-05-02T05:05:15;11.90;;;7.50;;
67074;SDS011;53990;50.334;18.640;2023-05-02T05:07:42;14.80;;;7.90;;
67074;SDS011;53990;50.334;18.640;2023-05-02T05:10:09;11.00;;;7.90;;
67074;SDS011;53990;50.334;18.640;2023-05-02T05:12:40;13.20;;;7.50;;
67074;SDS011;53990;50.334;18.640;2023-05-02T05:15:08;15.20;;;7.40;;
67074;SDS011;53990;50.334;18.640;2023-05-02T05:17:36;13.00;;;7.40;;
67074;SDS011;53990;50.334;18.640;2023-05-02T05:20:04;16.10;;;9.40;;
67074;SDS011;53990;50.334;18.640;2023-05-02T05:22:40;13.40;;;7.50;;
67074;SDS011;53990;50.334;18.640;2023-05-02T05:25:08;15.90;;;7.20;;
67074;SDS011;53990;50.334;18.640;2023-05-02T05:27:36;13.40;;;7.60;;
67074;SDS011;53990;50.334;18.640;2023-05-02T05:30:04;10.40;;;6.90;;
67074;SDS011;53990;50.334;18.640;2023-05-02T05:32:32;13.70;;;7.40;;
67074;SDS011;53990;50.334;18.640;2023-05-02T05:35:00;11.70;;;6.80;;
67074;SDS011;53990;50.334;18.640;2023-05-02T05:37:27;11.00;;;6.70;;
67074;SDS011;53990;50.334;18.640;2023-05-02T05:39:54;11.40;;;6.50;;
67074;SDS011;53990;50.334;18.640;2023-05-02T05:42:21;10.00;;;6.10;;
67074;SDS011;53990;50.334;18.640;2023-05-02T05:44:49;11.80;;;6.60;;
67074;SDS011;53990;50.334;18.640;2023-05-02T05:47:20;9.70;;;6.20;;
67074;SDS011;53990;50.334;18.640;2023-05-02T05:49:52;10.40;;;6.10;;
67074;SDS011;53990;50.334;18.640;2023-05-02T05:52:20;10.70;;;6.50;;
67074;SDS011;53990;50.334;18.640;2023-05-02T05:54:47;13.40;;;6.00;;
67074;SDS011;53990;50.334;18.640;2023-05-02T05:57:14;10.10;;;5.40;;
67074;SDS011;53990;50.334;18.640;2023-05-02T05:59:42;11.00;;;6.00;;
67074;SDS011;53990;50.334;18.640;2023-05-02T06:02:09;8.80;;;4.80;;
67074;SDS011;53990;50.334;18.640;2023-05-02T06:04:36;9.90;;;5.70;;
67074;SDS011;53990;50.334;18.640;2023-05-02T06:07:04;7.60;;;4.10;;
67074;SDS011;53990;50.334;18.640;2023-05-02T06:09:31;6.00;;;4.20;;
67074;SDS011;53990;50.334;18.640;2023-05-02T06:12:00;8.60;;;3.80;;
67074;SDS011;53990;50.334;18.640;2023-05-02T06:14:28;7.40;;;4.50;;
67074;SDS011;53990;50.334;18.640;2023-05-02T06:16:58;7.50;;;4.10;;
67074;SDS011;53990;50.334;18.640;2023-05-02T06:19:25;5.50;;;4.40;;
67074;SDS011;53990;50.334;18.640;2023-05-02T06:21:52;6.90;;;4.30;;
67074;SDS011;53990;50.334;18.640;2023-05-02T06:24:20;7.80;;;4.40;;
67074;SDS011;53990;50.334;18.640;2023-05-02T06:26:47;10.00;;;5.80;;
67074;SDS011;53990;50.334;18.640;2023-05-02T06:29:14;7.40;;;4.40;;
67074;SDS011;53990;50.334;18.640;2023-05-02T06:31:41;6.70;;;4.40;;
67074;SDS011;53990;50.334;18.640;2023-05-02T06:34:08;6.10;;;3.40;;
67074;SDS011;53990;50.334;18.640;2023-05-02T06:36:36;14.70;;;3.90;;
67074;SDS011;53990;50.334;18.640;2023-05-02T06:39:03;4.70;;;2.90;;
67074;SDS011;53990;50.334;18.640;2023-05-02T06:41:30;5.20;;;3.30;;
67074;SDS011;53990;50.334;18.640;2023-05-02T06:43:57;5.10;;;2.90;;
67074;SDS011;53990;50.334;18.640;2023-05-02T06:46:28;6.10;;;2.80;;
67074;SDS011;53990;50.334;18.640;2023-05-02T06:48:55;5.00;;;2.90;;
67074;SDS011;53990;50.334;18.640;2023-05-02T06:51:23;4.10;;;2.80;;
67074;SDS011;53990;50.334;18.640;2023-05-02T06:53:50;6.00;;;3.40;;
67074;SDS011;53990;50.334;18.640;2023-05-02T06:56:17;5.60;;;2.90;;
67074;SDS011;53990;50.334;18.640;2023-05-02T06:58:45;5.70;;;3.00;;
67074;SDS011;53990;50.334;18.640;2023-05-02T07:01:12;9.20;;;3.20;;
67074;SDS011;53990;50.334;18.640;2023-05-02T07:03:39;5.70;;;3.10;;
67074;SDS011;53990;50.334;18.640;2023-05-02T07:06:06;5.70;;;3.30;;
67074;SDS011;53990;50.334;18.640;2023-05-02T07:08:34;7.00;;;3.30;;
67074;SDS011;53990;50.334;18.640;2023-05-02T07:11:01;9.40;;;5.90;;
67074;SDS011;53990;50.334;18.640;2023-05-02T07:13:29;5.80;;;3.60;;
67074;SDS011;53990;50.334;18.640;2023-05-02T07:15:56;5.30;;;3.30;;
67074;SDS011;53990;50.334;18.640;2023-05-02T07:18:24;6.10;;;3.30;;
67074;SDS011;53990;50.334;18.640;2023-05-02T07:20:51;7.00;;;4.30;;
67074;SDS011;53990;50.334;18.640;2023-05-02T07:23:18;6.90;;;3.40;;
67074;SDS011;53990;50.334;18.640;2023-05-02T07:25:47;6.20;;;3.50;;
67074;SDS011;53990;50.334;18.640;2023-05-02T07:28:14;6.80;;;4.10;;
67074;SDS011;53990;50.334;18.640;2023-05-02T07:30:41;5.40;;;3.50;;
67074;SDS011;53990;50.334;18.640;2023-05-02T07:33:09;6.30;;;4.40;;
67074;SDS011;53990;50.334;18.640;2023-05-02T07:35:36;7.70;;;4.50;;
67074;SDS011;53990;50.334;18.640;2023-05-02T07:38:03;6.00;;;4.70;;
67074;SDS011;53990;50.334;18.640;2023-05-02T07:40:30;7.00;;;5.20;;
67074;SDS011;53990;50.334;18.640;2023-05-02T07:42:59;7.00;;;4.80;;
67074;SDS011;53990;50.334;18.640;2023-05-02T07:45:27;7.70;;;5.20;;
67074;SDS011;53990;50.334;18.640;2023-05-02T07:47:54;7.40;;;5.60;;
67074;SDS011;53990;50.334;18.640;2023-05-02T07:50:22;7.90;;;5.20;;
67074;SDS011;53990;50.334;18.640;2023-05-02T07:52:49;6.40;;;5.30;;
67074;SDS011;53990;50.334;18.640;2023-05-02T07:55:17;7.80;;;5.00;;
67074;SDS011;53990;50.334;18.640;2023-05-02T07:57:44;7.70;;;5.40;;
67074;SDS011;53990;50.334;18.640;2023-05-02T08:00:12;7.20;;;5.40;;
67074;SDS011;53990;50.334;18.640;2023-05-02T08:02:40;5.80;;;4.40;;
67074;SDS011;53990;50.334;18.640;2023-05-02T08:05:08;6.00;;;4.80;;
67074;SDS011;53990;50.334;18.640;2023-05-02T08:07:35;7.20;;;4.50;;
67074;SDS011;53990;50.334;18.640;2023-05-02T08:10:04;7.20;;;5.00;;
67074;SDS011;53990;50.334;18.640;2023-05-02T08:12:36;7.70;;;4.80;;
67074;SDS011;53990;50.334;18.640;2023-05-02T08:15:06;5.80;;;4.30;;
67074;SDS011;53990;50.334;18.640;2023-05-02T08:17:34;4.90;;;3.80;;
67074;SDS011;53990;50.334;18.640;2023-05-02T08:20:01;8.20;;;5.20;;
67074;SDS011;53990;50.334;18.640;2023-05-02T08:22:29;5.40;;;3.90;;
67074;SDS011;53990;50.334;18.640;2023-05-02T08:24:56;10.20;;;4.30;;
67074;SDS011;53990;50.334;18.640;2023-05-02T08:27:24;6.60;;;4.40;;
67074;SDS011;53990;50.334;18.640;2023-05-02T08:29:51;5.80;;;4.60;;
67074;SDS011;53990;50.334;18.640;2023-05-02T08:32:18;7.80;;;4.80;;
67074;SDS011;53990;50.334;18.640;2023-05-02T08:34:46;6.50;;;4.70;;
67074;SDS011;53990;50.334;18.640;2023-05-02T08:37:13;6.80;;;5.20;;
67074;SDS011;53990;50.334;18.640;2023-05-02T08:39:40;8.10;;;5.00;;
67074;SDS011;53990;50.334;18.640;2023-05-02T08:42:08;7.30;;;5.00;;
67074;SDS011;53990;50.334;18.640;2023-05-02T08:44:36;9.00;;;5.20;;
67074;SDS011;53990;50.334;18.640;2023-05-02T08:47:04;6.40;;;5.30;;
67074;SDS011;53990;50.334;18.640;2023-05-02T08:49:33;8.60;;;5.00;;
67074;SDS011;53990;50.334;18.640;2023-05-02T08:52:03;8.40;;;4.90;;
67074;SDS011;53990;50.334;18.640;2023-05-02T08:54:33;8.50;;;5.10;;
67074;SDS011;53990;50.334;18.640;2023-05-02T08:57:04;6.00;;;5.30;;
67074;SDS011;53990;50.334;18.640;2023-05-02T08:59:34;9.20;;;5.90;;
67074;SDS011;53990;50.334;18.640;2023-05-02T09:04:54;7.20;;;5.60;;
67074;SDS011;53990;50.334;18.640;2023-05-02T09:07:24;9.80;;;6.70;;
67074;SDS011;53990;50.334;18.640;2023-05-02T09:09:51;7.40;;;5.70;;
67074;SDS011;53990;50.334;18.640;2023-05-02T09:12:24;8.40;;;5.90;;
67074;SDS011;53990;50.334;18.640;2023-05-02T09:15:12;8.80;;;5.40;;
67074;SDS011;53990;50.334;18.640;2023-05-02T09:17:41;7.00;;;5.50;;
67074;SDS011;53990;50.334;18.640;2023-05-02T09:20:14;9.60;;;6.50;;
67074;SDS011;53990;50.334;18.640;2023-05-02T09:22:49;7.40;;;6.10;;
67074;SDS011;53990;50.334;18.640;2023-05-02T09:25:19;7.40;;;5.60;;
67074;SDS011;53990;50.334;18.640;2023-05-02T09:27:52;9.00;;;6.00;;
67074;SDS011;53990;50.334;18.640;2023-05-02T09:30:25;8.10;;;5.70;;
67074;SDS011;53990;50.334;18.640;2023-05-02T09:32:53;10.10;;;6.40;;
67074;SDS011;53990;50.334;18.640;2023-05-02T09:35:23;10.10;;;6.30;;
67074;SDS011;53990;50.334;18.640;2023-05-02T09:37:54;9.00;;;6.80;;
67074;SDS011;53990;50.334;18.640;2023-05-02T09:40:23;8.50;;;6.30;;
67074;SDS011;53990;50.334;18.640;2023-05-02T09:42:51;9.80;;;6.90;;
67074;SDS011;53990;50.334;18.640;2023-05-02T09:45:23;7.20;;;6.20;;
67074;SDS011;53990;50.334;18.640;2023-05-02T09:47:51;10.80;;;7.10;;
67074;SDS011;53990;50.334;18.640;2023-05-02T09:53:06;8.60;;;6.60;;
67074;SDS011;53990;50.334;18.640;2023-05-02T09:55:35;8.30;;;6.10;;
67074;SDS011;53990;50.334;18.640;2023-05-02T09:58:02;10.70;;;7.00;;
67074;SDS011;53990;50.334;18.640;2023-05-02T10:00:40;10.50;;;6.80;;
67074;SDS011;53990;50.334;18.640;2023-05-02T10:03:09;10.20;;;6.70;;
67074;SDS011;53990;50.334;18.640;2023-05-02T10:05:37;7.90;;;7.10;;
67074;SDS011;53990;50.334;18.640;2023-05-02T10:08:06;8.90;;;6.30;;
67074;SDS011;53990;50.334;18.640;2023-05-02T10:10:39;8.40;;;6.80;;
67074;SDS011;53990;50.334;18.640;2023-05-02T10:13:08;8.10;;;6.80;;
67074;SDS011;53990;50.334;18.640;2023-05-02T10:15:41;11.10;;;7.10;;
67074;SDS011;53990;50.334;18.640;2023-05-02T10:18:19;9.50;;;7.90;;
67074;SDS011;53990;50.334;18.640;2023-05-02T10:20:57;8.60;;;6.60;;
67074;SDS011;53990;50.334;18.640;2023-05-02T10:23:26;9.20;;;7.00;;
67074;SDS011;53990;50.334;18.640;2023-05-02T10:25:54;8.60;;;6.90;;
67074;SDS011;53990;50.334;18.640;2023-05-02T10:28:25;10.70;;;7.90;;
67074;SDS011;53990;50.334;18.640;2023-05-02T10:30:54;8.30;;;6.70;;
67074;SDS011;53990;50.334;18.640;2023-05-02T10:33:23;10.80;;;7.00;;
67074;SDS011;53990;50.334;18.640;2023-05-02T10:35:50;8.80;;;6.60;;
67074;SDS011;53990;50.334;18.640;2023-05-02T10:38:19;7.50;;;6.70;;
67074;SDS011;53990;50.334;18.640;2023-05-02T10:40:52;10.60;;;7.30;;
67074;SDS011;53990;50.334;18.640;2023-05-02T10:43:23;9.50;;;7.60;;
67074;SDS011;53990;50.334;18.640;2023-05-02T10:45:52;10.20;;;7.80;;
67074;SDS011;53990;50.334;18.640;2023-05-02T10:48:21;9.90;;;7.90;;
67074;SDS011;53990;50.334;18.640;2023-05-02T10:50:54;9.50;;;8.20;;
67074;SDS011;53990;50.334;18.640;2023-05-02T10:53:26;10.00;;;7.50;;
67074;SDS011;53990;50.334;18.640;2023-05-02T10:58:44;8.20;;;7.10;;
67074;SDS011;53990;50.334;18.640;2023-05-02T11:03:56;10.50;;;8.20;;
67074;SDS011;53990;50.334;18.640;2023-05-02T11:06:25;11.00;;;8.30;;
67074;SDS011;53990;50.334;18.640;2023-05-02T11:11:42;8.00;;;7.00;;
67074;SDS011;53990;50.334;18.640;2023-05-02T11:22:31;8.40;;;7.00;;
67074;SDS011;53990;50.334;18.640;2023-05-02T11:24:59;10.80;;;7.10;;
67074;SDS011;53990;50.334;18.640;2023-05-02T11:30:01;9.70;;;6.30;;
67074;SDS011;53990;50.334;18.640;2023-05-02T11:38:09;11.80;;;6.40;;
67074;SDS011;53990;50.334;18.640;2023-05-02T11:40:37;6.90;;;5.60;;
67074;SDS011;53990;50.334;18.640;2023-05-02T11:43:12;8.50;;;5.80;;
67074;SDS011;53990;50.334;18.640;2023-05-02T11:45:40;8.20;;;5.00;;
67074;SDS011;53990;50.334;18.640;2023-05-02T11:48:12;8.00;;;4.50;;
67074;SDS011;53990;50.334;18.640;2023-05-02T11:50:50;6.90;;;5.10;;
67074;SDS011;53990;50.334;18.640;2023-05-02T11:53:28;6.70;;;5.30;;
67074;SDS011;53990;50.334;18.640;2023-05-02T11:55:57;7.30;;;4.30;;
67074;SDS011;53990;50.334;18.640;2023-05-02T11:58:27;6.00;;;4.10;;
67074;SDS011;53990;50.334;18.640;2023-05-02T12:00:55;5.00;;;4.20;;
67074;SDS011;53990;50.334;18.640;2023-05-02T12:03:31;5.90;;;4.60;;
67074;SDS011;53990;50.334;18.640;2023-05-02T12:06:13;6.10;;;3.90;;
67074;SDS011;53990;50.334;18.640;2023-05-02T12:08:42;5.20;;;3.50;;
67074;SDS011;53990;50.334;18.640;2023-05-02T12:11:14;7.90;;;3.50;;
67074;SDS011;53990;50.334;18.640;2023-05-02T12:13:47;6.80;;;5.10;;
67074;SDS011;53990;50.334;18.640;2023-05-02T12:16:16;8.90;;;6.50;;
67074;SDS011;53990;50.334;18.640;2023-05-02T12:18:44;3.80;;;3.00;;
67074;SDS011;53990;50.334;18.640;2023-05-02T12:21:12;7.70;;;4.20;;
67074;SDS011;53990;50.334;18.640;2023-05-02T12:23:41;7.10;;;4.70;;
67074;SDS011;53990;50.334;18.640;2023-05-02T12:26:22;15.90;;;7.70;;
67074;SDS011;53990;50.334;18.640;2023-05-02T12:28:57;15.80;;;8.50;;
67074;SDS011;53990;50.334;18.640;2023-05-02T12:31:25;20.30;;;9.40;;
67074;SDS011;53990;50.334;18.640;2023-05-02T12:33:55;7.20;;;4.30;;
67074;SDS011;53990;50.334;18.640;2023-05-02T12:36:26;11.70;;;6.40;;
67074;SDS011;53990;50.334;18.640;2023-05-02T12:38:57;9.60;;;5.20;;
67074;SDS011;53990;50.334;18.640;2023-05-02T12:41:36;13.90;;;6.60;;
67074;SDS011;53990;50.334;18.640;2023-05-02T12:44:05;6.60;;;4.40;;
67074;SDS011;53990;50.334;18.640;2023-05-02T12:46:33;22.70;;;10.20;;
67074;SDS011;53990;50.334;18.640;2023-05-02T12:49:09;18.50;;;9.00;;
67074;SDS011;53990;50.334;18.640;2023-05-02T12:51:40;10.80;;;5.50;;
67074;SDS011;53990;50.334;18.640;2023-05-02T12:54:18;8.50;;;5.30;;
67074;SDS011;53990;50.334;18.640;2023-05-02T12:56:46;16.90;;;8.40;;
67074;SDS011;53990;50.334;18.640;2023-05-02T12:59:28;13.90;;;7.10;;
67074;SDS011;53990;50.334;18.640;2023-05-02T13:01:57;14.00;;;7.50;;
67074;SDS011;53990;50.334;18.640;2023-05-02T13:04:38;6.50;;;4.50;;
67074;SDS011;53990;50.334;18.640;2023-05-02T13:07:06;5.40;;;3.40;;
67074;SDS011;53990;50.334;18.640;2023-05-02T13:09:34;6.60;;;3.70;;
67074;SDS011;53990;50.334;18.640;2023-05-02T13:12:01;7.40;;;3.80;;
67074;SDS011;53990;50.334;18.640;2023-05-02T13:14:29;9.10;;;5.20;;
67074;SDS011;53990;50.334;18.640;2023-05-02T13:16:57;8.50;;;5.50;;
67074;SDS011;53990;50.334;18.640;2023-05-02T13:19:25;5.40;;;2.90;;
67074;SDS011;53990;50.334;18.640;2023-05-02T13:21:59;8.10;;;4.40;;
67074;SDS011;53990;50.334;18.640;2023-05-02T13:24:27;9.30;;;5.20;;
67074;SDS011;53990;50.334;18.640;2023-05-02T13:26:54;7.00;;;4.50;;
67074;SDS011;53990;50.334;18.640;2023-05-02T13:29:22;7.30;;;3.30;;
67074;SDS011;53990;50.334;18.640;2023-05-02T13:31:49;7.40;;;3.10;;
67074;SDS011;53990;50.334;18.640;2023-05-02T13:34:17;8.50;;;4.70;;
67074;SDS011;53990;50.334;18.640;2023-05-02T13:36:44;7.90;;;3.80;;
67074;SDS011;53990;50.334;18.640;2023-05-02T13:39:12;6.00;;;2.50;;
67074;SDS011;53990;50.334;18.640;2023-05-02T13:41:40;3.90;;;2.40;;
67074;SDS011;53990;50.334;18.640;2023-05-02T13:44:07;3.20;;;2.40;;
67074;SDS011;53990;50.334;18.640;2023-05-02T13:46:35;4.10;;;2.60;;
67074;SDS011;53990;50.334;18.640;2023-05-02T13:49:03;5.50;;;3.40;;
67074;SDS011;53990;50.334;18.640;2023-05-02T13:51:31;6.40;;;4.10;;
67074;SDS011;53990;50.334;18.640;2023-05-02T13:53:59;7.20;;;3.20;;
67074;SDS011;53990;50.334;18.640;2023-05-02T13:56:27;5.40;;;3.00;;
67074;SDS011;53990;50.334;18.640;2023-05-02T13:58:55;5.00;;;3.20;;
67074;SDS011;53990;50.334;18.640;2023-05-02T14:01:23;5.70;;;3.30;;
67074;SDS011;53990;50.334;18.640;2023-05-02T14:03:52;7.40;;;3.70;;
67074;SDS011;53990;50.334;18.640;2023-05-02T14:06:20;5.40;;;3.10;;
67074;SDS011;53990;50.334;18.640;2023-05-02T14:08:47;4.60;;;2.80;;
67074;SDS011;53990;50.334;18.640;2023-05-02T14:11:15;5.10;;;3.20;;
67074;SDS011;53990;50.334;18.640;2023-05-02T14:13:42;5.90;;;3.30;;
67074;SDS011;53990;50.334;18.640;2023-05-02T14:16:10;4.60;;;3.00;;
67074;SDS011;53990;50.334;18.640;2023-05-02T14:18:37;4.70;;;2.90;;
67074;SDS011;53990;50.334;18.640;2023-05-02T14:21:05;5.20;;;3.10;;
67074;SDS011;53990;50.334;18.640;2023-05-02T14:23:32;4.30;;;3.00;;
67074;SDS011;53990;50.334;18.640;2023-05-02T14:26:00;4.60;;;3.00;;
67074;SDS011;53990;50.334;18.640;2023-05-02T14:28:28;6.80;;;3.30;;
67074;SDS011;53990;50.334;18.640;2023-05-02T14:30:55;5.80;;;3.30;;
67074;SDS011;53990;50.334;18.640;2023-05-02T14:33:23;5.90;;;3.40;;
67074;SDS011;53990;50.334;18.640;2023-05-02T14:35:50;4.90;;;2.90;;
67074;SDS011;53990;50.334;18.640;2023-05-02T14:38:18;6.40;;;4.10;;
67074;SDS011;53990;50.334;18.640;2023-05-02T14:40:45;6.20;;;4.40;;
67074;SDS011;53990;50.334;18.640;2023-05-02T14:43:13;6.20;;;3.70;;
67074;SDS011;53990;50.334;18.640;2023-05-02T14:45:40;5.70;;;3.80;;
67074;SDS011;53990;50.334;18.640;2023-05-02T14:48:07;5.90;;;4.20;;
67074;SDS011;53990;50.334;18.640;2023-05-02T14:50:36;6.10;;;3.90;;
67074;SDS011;53990;50.334;18.640;2023-05-02T14:53:05;5.60;;;3.60;;
67074;SDS011;53990;50.334;18.640;2023-05-02T14:55:36;5.50;;;4.30;;
67074;SDS011;53990;50.334;18.640;2023-05-02T14:58:05;7.20;;;3.90;;
67074;SDS011;53990;50.334;18.640;2023-05-02T15:00:36;7.10;;;4.60;;
67074;SDS011;53990;50.334;18.640;2023-05-02T15:03:05;7.60;;;4.80;;
67074;SDS011;53990;50.334;18.640;2023-05-02T15:05:33;11.10;;;5.70;;
67074;SDS011;53990;50.334;18.640;2023-05-02T15:08:00;8.70;;;5.10;;
67074;SDS011;53990;50.334;18.640;2023-05-02T15:10:28;10.90;;;6.00;;
67074;SDS011;53990;50.334;18.640;2023-05-02T15:12:55;7.70;;;4.40;;
67074;SDS011;53990;50.334;18.640;2023-05-02T15:15:24;9.60;;;6.20;;
67074;SDS011;53990;50.334;18.640;2023-05-02T15:17:51;6.60;;;4.00;;
67074;SDS011;53990;50.334;18.640;2023-05-02T15:20:19;5.90;;;3.90;;